Time;durP1;ratioP1;P1;durP2;ratioP2;P2;SDS_P1;SDS_P2;PMS_P1;PMS_P2;Temp;Humidity;BMP_temperature;BMP_pressure;BME280_temperature;BME280_humidity;BME280_pressure;Samples;Min_cycle;Max_cycle;Signal;HPM_P1;HPM_P2
2023/08/13 00:00:35;;;;;;;6.03;3.05;;;;;;;22.91;60.28;98561.47;5012547;28;20175;-57
2023/08/13 00:03:01;;;;;;;3.38;3.08;;;;;;;22.83;60.36;98548.38;5028247;28;20186;-57
2023/08/13 00:05:26;;;;;;;3.00;2.70;;;;;;;22.93;60.35;98558.69;5034574;28;20182;-57
2023/08/13 00:07:52;;;;;;;5.25;3.00;;;;;;;22.70;60.57;98523.59;5034790;28;20193;-57
2023/08/13 00:10:17;;;;;;;3.30;3.00;;;;;;;22.67;60.91;98534.50;5034423;28;20289;-57
2023/08/13 00:12:43;;;;;;;3.63;2.90;;;;;;;22.70;61.08;98527.06;5034507;28;20185;-58
2023/08/13 00:15:10;;;;;;;3.72;2.83;;;;;;;22.82;61.19;98548.53;5034480;28;20233;-58
2023/08/13 00:17:36;;;;;;;3.42;3.13;;;;;;;22.94;60.66;98552.41;5034287;28;20182;-58
2023/08/13 00:20:02;;;;;;;3.58;3.28;;;;;;;22.68;60.96;98523.75;5034374;28;20667;-58
2023/08/13 00:22:29;;;;;;;4.80;3.15;;;;;;;22.61;61.17;98527.31;5034338;28;20178;-58
2023/08/13 00:24:55;;;;;;;3.53;3.10;;;;;;;22.60;61.79;98525.66;5034311;28;20197;-57
2023/08/13 00:27:21;;;;;;;3.65;3.35;;;;;;;22.56;62.34;98545.47;5034330;28;20173;-57
2023/08/13 00:29:46;;;;;;;4.97;2.90;;;;;;;22.39;62.71;98522.81;5034129;28;20233;-58
2023/08/13 00:32:12;;;;;;;4.03;3.50;;;;;;;22.42;62.75;98543.56;5034196;28;20178;-57
2023/08/13 00:34:37;;;;;;;3.08;2.88;;;;;;;22.31;63.42;98539.53;5034120;28;20182;-58
2023/08/13 00:37:03;;;;;;;2.95;2.80;;;;;;;22.25;63.41;98536.78;5034340;28;20178;-57
2023/08/13 00:39:28;;;;;;;3.00;2.78;;;;;;;22.24;63.76;98541.22;5034036;28;20252;-58
2023/08/13 00:41:53;;;;;;;3.13;2.83;;;;;;;22.13;63.87;98538.16;5034005;28;20174;-57
2023/08/13 00:44:19;;;;;;;5.70;3.22;;;;;;;21.91;64.33;98510.78;5033976;28;20213;-58
2023/08/13 00:46:45;;;;;;;3.53;3.22;;;;;;;21.85;64.97;98514.09;5033960;28;20174;-58
2023/08/13 00:49:11;;;;;;;3.55;3.00;;;;;;;22.00;64.96;98541.38;5033775;28;20232;-57
2023/08/13 00:51:37;;;;;;;5.28;3.67;;;;;;;22.02;65.46;98552.56;5031149;28;20660;-58
2023/08/13 00:54:03;;;;;;;3.50;3.20;;;;;;;21.80;65.65;98550.69;5030549;28;20246;-57
2023/08/13 00:56:29;;;;;;;2.92;2.67;;;;;;;21.93;65.46;98548.34;5031226;28;20181;-57
2023/08/13 00:58:54;;;;;;;3.78;3.20;;;;;;;21.68;66.17;98545.97;5031223;28;20185;-57
2023/08/13 01:01:20;;;;;;;2.85;2.65;;;;;;;21.41;66.65;98504.25;5031228;28;20263;-58
2023/08/13 01:03:45;;;;;;;2.95;2.67;;;;;;;21.42;66.78;98526.94;5031145;28;20186;-57
2023/08/13 01:06:26;;;;;;;3.38;3.08;;;;;;;21.48;67.51;98547.31;5031165;28;20237;-57
2023/08/13 01:09:03;;;;;;;3.38;3.10;;;;;;;21.39;67.40;98537.81;5031072;28;20722;-57
2023/08/13 01:11:50;;;;;;;3.10;2.90;;;;;;;21.44;66.42;98535.50;5031037;28;20200;-57
2023/08/13 01:14:42;;;;;;;2.78;2.58;;;;;;;21.54;66.42;98546.66;5031168;28;20184;-57
2023/08/13 01:17:09;;;;;;;3.40;3.08;;;;;;;21.46;66.97;98550.16;5030850;28;20734;-58
2023/08/13 01:19:35;;;;;;;3.20;3.00;;;;;;;21.50;66.78;98550.63;5030851;28;21158;-57
2023/08/13 01:22:00;;;;;;;3.72;3.42;;;;;;;21.28;67.34;98530.28;5031383;28;20186;-57
2023/08/13 01:24:26;;;;;;;4.57;3.00;;;;;;;21.25;67.15;98530.63;5033338;28;20178;-57
2023/08/13 01:27:06;;;;;;;3.42;3.13;;;;;;;21.36;67.42;98553.94;5032900;28;20779;-57
2023/08/13 01:29:44;;;;;;;3.17;2.97;;;;;;;21.17;67.88;98535.91;5010639;28;20612;-57
2023/08/13 01:32:13;;;;;;;4.10;3.42;;;;;;;21.22;68.00;98550.19;5010913;28;20258;-57
2023/08/13 01:34:40;;;;;;;3.42;3.17;;;;;;;21.14;67.73;98541.50;5010894;28;20657;-58
2023/08/13 01:37:06;;;;;;;3.78;3.35;;;;;;;21.16;67.90;98550.06;5010804;28;20174;-57
2023/08/13 01:39:31;;;;;;;5.05;3.10;;;;;;;20.96;68.71;98528.53;5010814;28;20193;-58
2023/08/13 01:41:57;;;;;;;4.10;3.28;;;;;;;20.98;69.07;98538.91;5011029;28;20261;-57
2023/08/13 01:44:23;;;;;;;4.05;3.28;;;;;;;20.94;69.74;98559.47;5010954;28;21233;-58
2023/08/13 01:46:49;;;;;;;4.18;3.22;;;;;;;20.91;70.41;98558.97;5010495;28;20245;-57
2023/08/13 01:49:14;;;;;;;4.13;3.22;;;;;;;20.75;69.89;98537.91;5010421;28;20216;-57
2023/08/13 01:51:40;;;;;;;3.53;3.13;;;;;;;20.84;69.69;98557.94;5010380;28;20186;-57
2023/08/13 01:54:05;;;;;;;9.18;3.15;;;;;;;20.72;69.69;98535.59;5010673;28;20179;-57
2023/08/13 01:56:31;;;;;;;5.15;3.70;;;;;;;20.61;69.95;98531.50;5010379;28;20178;-57
2023/08/13 01:58:56;;;;;;;3.25;3.05;;;;;;;20.78;70.13;98563.88;5010383;28;20190;-57
2023/08/13 02:01:22;;;;;;;3.45;3.25;;;;;;;20.62;70.67;98553.34;5029077;28;20193;-58
2023/08/13 02:03:47;;;;;;;3.95;3.30;;;;;;;20.58;71.95;98559.94;5032520;28;20177;-57
2023/08/13 02:06:13;;;;;;;3.40;3.10;;;;;;;20.38;72.17;98541.03;5032403;28;20232;-57
2023/08/13 02:08:38;;;;;;;4.57;3.47;;;;;;;20.46;72.31;98556.78;5029572;28;20285;-58
2023/08/13 02:11:03;;;;;;;3.75;3.42;;;;;;;20.29;71.79;98530.66;5029869;28;20185;-58
2023/08/13 02:13:29;;;;;;;3.55;3.25;;;;;;;20.21;71.91;98522.75;5029858;28;20243;-57
2023/08/13 02:16:00;;;;;;;3.78;3.10;;;;;;;20.25;72.83;98550.38;5029790;28;20174;-57
2023/08/13 02:18:25;;;;;;;4.25;3.25;;;;;;;20.23;73.68;98561.03;5029654;28;20193;-57
2023/08/13 02:20:51;;;;;;;3.75;3.40;;;;;;;20.19;74.15;98569.41;5029762;28;20182;-58
2023/08/13 02:23:16;;;;;;;5.13;3.22;;;;;;;20.04;74.13;98537.66;5029460;28;20189;-58
2023/08/13 02:25:42;;;;;;;4.50;3.38;;;;;;;19.88;73.70;98528.91;5029519;28;20687;-57
2023/08/13 02:28:07;;;;;;;3.85;3.60;;;;;;;19.96;73.61;98544.69;5029413;28;20316;-57
2023/08/13 02:30:32;;;;;;;2.95;2.75;;;;;;;19.80;74.20;98542.00;5029396;28;20178;-58
2023/08/13 02:32:58;;;;;;;4.10;3.35;;;;;;;19.74;73.84;98542.63;5029248;28;20197;-57
2023/08/13 02:35:23;;;;;;;3.67;3.08;;;;;;;19.92;73.63;98575.72;5029378;28;20174;-57
2023/08/13 02:37:49;;;;;;;3.72;3.42;;;;;;;19.68;73.42;98546.75;5029343;28;20182;-57
2023/08/13 02:40:14;;;;;;;3.42;3.13;;;;;;;19.88;73.21;98574.38;5029235;28;20193;-57
2023/08/13 02:42:39;;;;;;;3.65;3.35;;;;;;;19.82;72.72;98554.00;5029199;28;20320;-57
2023/08/13 02:45:05;;;;;;;3.13;2.90;;;;;;;19.94;70.94;98552.72;5029493;28;20177;-57
2023/08/13 02:47:30;;;;;;;4.00;3.28;;;;;;;19.81;69.74;98547.09;5031542;28;20229;-57
2023/08/13 02:49:56;;;;;;;4.68;3.03;;;;;;;19.73;71.27;98544.47;5031575;28;20213;-57
2023/08/13 02:52:21;;;;;;;3.22;3.03;;;;;;;19.75;72.05;98552.19;5031361;28;20552;-57
2023/08/13 02:54:47;;;;;;;4.20;3.08;;;;;;;19.89;72.47;98585.72;5031616;28;20180;-57
2023/08/13 02:57:12;;;;;;;5.57;3.13;;;;;;;19.62;72.80;98543.91;5031494;28;20271;-57
2023/08/13 02:59:37;;;;;;;3.50;3.20;;;;;;;19.94;72.68;98572.94;5031497;28;20620;-57
2023/08/13 03:02:03;;;;;;;4.78;3.17;;;;;;;19.82;72.72;98569.75;5031408;28;20233;-57
2023/08/13 03:04:28;;;;;;;3.67;3.03;;;;;;;19.65;72.86;98547.03;5031434;28;20181;-57
2023/08/13 03:06:54;;;;;;;3.63;3.33;;;;;;;19.80;72.82;98579.59;5030968;28;20218;-57
2023/08/13 03:09:21;;;;;;;4.30;3.67;;;;;;;19.78;72.59;98578.13;5031397;28;20208;-57
2023/08/13 03:11:47;;;;;;;3.47;2.83;;;;;;;19.46;72.01;98536.00;5031273;28;20184;-57
2023/08/13 03:14:13;;;;;;;3.65;3.35;;;;;;;19.54;73.07;98557.00;5031355;28;20741;-58
2023/08/13 03:16:41;;;;;;;3.58;3.30;;;;;;;19.66;72.86;98558.38;5030892;28;20265;-58
2023/08/13 03:19:07;;;;;;;4.28;3.08;;;;;;;19.76;72.33;98587.97;5031332;28;20228;-58
2023/08/13 03:21:32;;;;;;;4.65;4.25;;;;;;;19.52;72.10;98545.84;5031269;28;20174;-57
2023/08/13 03:23:57;;;;;;;4.45;4.05;;;;;;;19.59;72.56;98557.38;5031123;28;20169;-57
2023/08/13 03:26:23;;;;;;;3.60;3.30;;;;;;;19.72;72.92;98569.09;5031203;28;20173;-57
2023/08/13 03:28:48;;;;;;;3.80;3.08;;;;;;;19.77;72.68;98568.59;5031026;28;20542;-57
2023/08/13 03:31:13;;;;;;;4.15;3.30;;;;;;;19.84;72.56;98578.31;5031138;28;20178;-57
2023/08/13 03:33:39;;;;;;;4.10;3.03;;;;;;;19.85;71.76;98566.81;5031355;28;20185;-58
2023/08/13 03:36:04;;;;;;;4.72;3.17;;;;;;;19.81;71.31;98573.38;5028425;28;20297;-58
2023/08/13 03:38:30;;;;;;;3.60;3.40;;;;;;;19.79;69.80;98558.75;5028608;28;20194;-58
2023/08/13 03:40:56;;;;;;;3.45;3.15;;;;;;;19.99;70.57;98596.91;5028582;28;20290;-58
2023/08/13 03:43:21;;;;;;;3.50;3.20;;;;;;;20.02;70.91;98601.84;5028553;28;20265;-58
2023/08/13 03:45:47;;;;;;;3.78;3.42;;;;;;;19.92;71.20;98575.72;5028558;28;20186;-57
2023/08/13 03:48:12;;;;;;;3.90;3.20;;;;;;;19.78;71.57;98564.97;5028516;28;20679;-58
2023/08/13 03:50:42;;;;;;;3.97;3.50;;;;;;;19.78;72.49;98586.84;5028579;28;20371;-58
2023/08/13 03:53:08;;;;;;;3.75;3.45;;;;;;;19.85;71.90;98593.09;5028506;28;20270;-58
2023/08/13 03:55:33;;;;;;;4.18;3.40;;;;;;;19.59;72.41;98560.00;5028454;28;20210;-58
2023/08/13 03:57:59;;;;;;;3.65;3.40;;;;;;;19.78;72.16;98593.88;5028508;28;20610;-58
2023/08/13 04:00:24;;;;;;;3.50;3.20;;;;;;;19.78;71.97;98583.38;5028471;28;20189;-58
2023/08/13 04:02:50;;;;;;;3.80;3.40;;;;;;;19.78;70.03;98573.69;5028402;28;20265;-58
2023/08/13 04:05:15;;;;;;;3.42;2.97;;;;;;;19.85;70.27;98585.22;5028372;28;20183;-56
2023/08/13 04:07:41;;;;;;;3.85;3.47;;;;;;;20.01;71.67;98597.56;5030006;28;20518;-57
2023/08/13 04:10:07;;;;;;;4.97;3.53;;;;;;;19.90;72.53;98589.97;5030540;28;20216;-57
2023/08/13 04:12:32;;;;;;;3.55;3.25;;;;;;;19.79;73.00;98571.88;5030955;28;20186;-57
2023/08/13 04:14:58;;;;;;;3.65;3.35;;;;;;;19.85;73.50;98592.25;5030728;28;20170;-57
2023/08/13 04:17:23;;;;;;;5.28;3.60;;;;;;;19.69;73.45;98572.00;5030616;28;20174;-57
2023/08/13 04:19:48;;;;;;;5.53;3.50;;;;;;;19.68;73.17;98585.28;5030569;28;20181;-57
2023/08/13 04:22:14;;;;;;;5.40;3.05;;;;;;;19.82;73.02;98598.63;5030587;28;20170;-57
2023/08/13 04:24:39;;;;;;;6.95;3.58;;;;;;;19.77;72.80;98592.22;5030516;28;20272;-57
2023/08/13 04:27:05;;;;;;;3.30;3.00;;;;;;;19.66;73.20;98566.25;5030502;28;20196;-57
2023/08/13 04:29:31;;;;;;;3.67;3.38;;;;;;;19.93;73.26;98614.13;5033694;28;20698;-57
2023/08/13 04:31:57;;;;;;;3.50;3.30;;;;;;;19.93;73.15;98606.25;5034467;28;20240;-57
2023/08/13 04:34:22;;;;;;;3.53;3.30;;;;;;;19.75;73.22;98586.31;5034127;28;20170;-57
2023/08/13 04:36:47;;;;;;;5.35;3.33;;;;;;;19.82;73.56;98605.72;5034113;28;20201;-57
2023/08/13 04:39:13;;;;;;;3.42;2.95;;;;;;;19.94;73.35;98604.44;5034002;28;20581;-57
2023/08/13 04:41:40;;;;;;;5.63;3.50;;;;;;;20.01;73.05;98608.91;5031269;28;20217;-57
2023/08/13 04:44:06;;;;;;;4.40;3.83;;;;;;;19.94;73.05;98588.69;5031519;28;20548;-57
2023/08/13 04:46:32;;;;;;;3.65;3.40;;;;;;;20.15;72.38;98607.50;4991888;28;20230;-57
2023/08/13 04:48:57;;;;;;;6.75;4.20;;;;;;;20.01;71.67;98579.19;4991919;28;20247;-57
2023/08/13 04:51:25;;;;;;;4.15;3.75;;;;;;;20.32;71.03;98614.44;4992121;28;20275;-57
2023/08/13 04:53:51;;;;;;;4.07;3.20;;;;;;;20.39;70.65;98612.84;4992266;28;20270;-57
2023/08/13 04:56:16;;;;;;;3.70;3.08;;;;;;;20.32;70.39;98591.63;4992033;28;20270;-57
2023/08/13 04:58:42;;;;;;;4.80;3.47;;;;;;;20.27;70.09;98572.03;4991946;28;20189;-57
2023/08/13 05:01:07;;;;;;;3.75;3.45;;;;;;;20.54;69.51;98603.31;4991865;28;20187;-58
2023/08/13 05:03:33;;;;;;;3.60;3.22;;;;;;;20.49;69.37;98595.06;4992051;28;20195;-57
2023/08/13 05:05:58;;;;;;;3.53;3.17;;;;;;;20.48;69.63;98601.31;4991921;28;20191;-57
2023/08/13 05:08:24;;;;;;;3.47;3.20;;;;;;;20.56;69.57;98623.19;4972129;28;20580;-57
2023/08/13 05:10:49;;;;;;;4.15;3.08;;;;;;;20.40;69.11;98586.34;4972551;28;20215;-56
2023/08/13 05:13:15;;;;;;;5.50;3.67;;;;;;;20.52;68.73;98594.78;4987168;28;20187;-57
2023/08/13 05:15:41;;;;;;;4.80;3.80;;;;;;;20.51;69.02;98593.13;4991975;28;20192;-57
2023/08/13 05:18:06;;;;;;;6.88;3.30;;;;;;;20.64;68.41;98609.25;4991848;28;20680;-58
2023/08/13 05:20:32;;;;;;;3.42;3.13;;;;;;;20.84;68.12;98632.44;4991872;28;20194;-58
2023/08/13 05:22:58;;;;;;;3.40;3.20;;;;;;;20.96;67.75;98632.94;4991823;28;20180;-58
2023/08/13 05:25:24;;;;;;;3.95;3.47;;;;;;;20.93;67.37;98643.81;4991675;28;20551;-58
2023/08/13 05:27:49;;;;;;;4.10;3.40;;;;;;;20.84;67.71;98624.53;4991727;28;20187;-58
2023/08/13 05:30:14;;;;;;;3.60;3.30;;;;;;;20.89;67.32;98621.44;4991661;28;20202;-58
2023/08/13 05:32:40;;;;;;;4.57;3.47;;;;;;;20.94;67.25;98637.56;4991617;28;20202;-58
2023/08/13 05:35:06;;;;;;;3.47;3.25;;;;;;;20.99;66.94;98632.63;4991671;28;20321;-58
2023/08/13 05:37:32;;;;;;;4.68;2.88;;;;;;;20.88;66.37;98601.34;4991596;28;20717;-58
2023/08/13 05:39:57;;;;;;;3.63;3.28;;;;;;;21.04;66.68;98633.78;4991159;28;20266;-56
2023/08/13 05:42:23;;;;;;;5.45;4.25;;;;;;;20.82;66.85;98602.84;4991537;28;20230;-58
2023/08/13 05:44:48;;;;;;;3.67;3.28;;;;;;;21.10;66.72;98637.56;4994809;28;20309;-58
2023/08/13 05:47:13;;;;;;;3.55;3.25;;;;;;;21.13;66.26;98637.22;5033124;28;20174;-57
2023/08/13 05:49:39;;;;;;;5.05;3.80;;;;;;;21.13;66.29;98629.34;5033052;28;20201;-58
2023/08/13 05:52:04;;;;;;;3.67;3.38;;;;;;;21.16;66.16;98631.66;5033250;28;20542;-57
2023/08/13 05:54:30;;;;;;;3.60;3.40;;;;;;;20.97;66.82;98616.19;5032715;28;20188;-58
2023/08/13 05:56:55;;;;;;;4.82;3.72;;;;;;;20.96;66.25;98596.94;5033007;28;20174;-58
2023/08/13 05:59:21;;;;;;;3.97;3.67;;;;;;;21.04;65.90;98596.94;5032843;28;20181;-57
2023/08/13 06:01:46;;;;;;;9.18;4.07;;;;;;;21.17;65.71;98601.69;5032530;28;20177;-58
2023/08/13 06:04:12;;;;;;;3.88;3.15;;;;;;;21.41;65.41;98617.44;5032548;28;20268;-58
2023/08/13 06:06:37;;;;;;;4.40;4.00;;;;;;;21.50;65.46;98624.34;5032348;28;20629;-58
2023/08/13 06:09:03;;;;;;;5.55;4.60;;;;;;;21.77;65.28;98618.69;5032514;28;20292;-57
2023/08/13 06:11:29;;;;;;;4.15;3.20;;;;;;;22.03;63.15;98630.63;5032514;28;20182;-58
2023/08/13 06:13:55;;;;;;;5.53;4.05;;;;;;;22.18;62.60;98636.81;5032379;28;20655;-58
2023/08/13 06:16:20;;;;;;;3.65;3.35;;;;;;;22.19;61.71;98612.09;5032500;28;20265;-58
2023/08/13 06:18:46;;;;;;;3.95;3.55;;;;;;;22.18;61.44;98605.19;5032406;28;20257;-58
2023/08/13 06:21:11;;;;;;;4.28;3.20;;;;;;;22.33;61.10;98600.00;5032336;28;20260;-58
2023/08/13 06:23:37;;;;;;;3.47;3.28;;;;;;;22.40;60.67;98603.56;5032275;28;20208;-58
2023/08/13 06:26:03;;;;;;;3.92;3.50;;;;;;;22.71;59.79;98639.50;5032203;28;20188;-58
2023/08/13 06:28:28;;;;;;;6.88;3.58;;;;;;;22.78;59.39;98634.34;5032135;28;20601;-58
2023/08/13 06:30:54;;;;;;;3.67;3.38;;;;;;;22.73;59.55;98623.50;5032154;28;20189;-57
2023/08/13 06:33:20;;;;;;;4.03;3.28;;;;;;;22.77;59.54;98601.03;5032070;28;20610;-58
2023/08/13 06:35:46;;;;;;;3.65;3.25;;;;;;;22.96;58.63;98621.69;5032096;28;20190;-58
2023/08/13 06:38:12;;;;;;;3.47;3.20;;;;;;;22.93;57.72;98606.19;5032090;28;20181;-58
2023/08/13 06:40:38;;;;;;;3.67;3.10;;;;;;;23.11;57.36;98619.88;5032064;28;20640;-58
2023/08/13 06:43:03;;;;;;;5.07;3.03;;;;;;;23.16;57.18;98623.66;5031790;28;20178;-58
2023/08/13 06:45:29;;;;;;;3.25;3.00;;;;;;;23.35;57.00;98646.09;5031656;28;20235;-58
2023/08/13 06:47:58;;;;;;;5.45;3.40;;;;;;;23.31;56.60;98626.34;5031392;28;20182;-58
2023/08/13 06:50:24;;;;;;;6.57;5.97;;;;;;;23.46;57.09;98640.38;5008697;28;20691;-58
2023/08/13 06:52:49;;;;;;;4.22;3.42;;;;;;;23.45;56.52;98639.56;5009499;28;20198;-58
2023/08/13 06:55:15;;;;;;;3.38;3.17;;;;;;;23.71;56.16;98650.53;5009556;28;20186;-58
2023/08/13 06:57:40;;;;;;;2.97;2.67;;;;;;;23.92;55.79;98654.09;5009500;28;20198;-58
2023/08/13 07:00:06;;;;;;;2.70;2.55;;;;;;;23.84;55.37;98626.91;5009295;28;20178;-58
2023/08/13 07:02:32;;;;;;;7.80;3.50;;;;;;;24.14;54.91;98626.75;5009329;28;20552;-58
2023/08/13 07:04:57;;;;;;;6.68;3.40;;;;;;;24.37;53.97;98632.72;5009456;28;20186;-58
2023/08/13 07:07:22;;;;;;;4.93;3.67;;;;;;;24.58;54.27;98639.09;5009148;28;20245;-58
2023/08/13 07:09:49;;;;;;;7.07;3.72;;;;;;;24.66;54.35;98632.66;5009221;28;20253;-58
2023/08/13 07:12:14;;;;;;;8.38;4.47;;;;;;;24.78;54.60;98641.75;5009357;28;20183;-58
2023/08/13 07:14:40;;;;;;;8.32;4.60;;;;;;;24.78;54.70;98636.44;5008979;28;20190;-58
2023/08/13 07:17:06;;;;;;;10.98;4.85;;;;;;;24.82;55.09;98631.59;5009171;28;20191;-58
2023/08/13 07:19:32;;;;;;;9.10;4.88;;;;;;;24.95;54.83;98637.81;5009064;28;20592;-58
2023/08/13 07:21:58;;;;;;;6.47;4.13;;;;;;;24.95;53.94;98640.47;5009043;28;20194;-57
2023/08/13 07:24:23;;;;;;;5.65;3.95;;;;;;;25.06;54.51;98636.50;5009024;28;20186;-57
2023/08/13 07:26:49;;;;;;;7.45;3.90;;;;;;;25.32;53.07;98642.06;5012553;28;20186;-60
2023/08/13 07:29:15;;;;;;;10.07;4.25;;;;;;;25.55;52.04;98651.38;5048591;28;20287;-59
2023/08/13 07:31:40;;;;;;;10.32;3.80;;;;;;;25.62;51.70;98641.66;5048578;28;20445;-57
2023/08/13 07:34:06;;;;;;;3.65;3.33;;;;;;;25.70;46.62;98636.22;5048617;28;20251;-58
2023/08/13 07:36:31;;;;;;;3.58;2.97;;;;;;;25.87;43.83;98647.31;5048607;28;20674;-57
2023/08/13 07:38:57;;;;;;;2.97;2.60;;;;;;;26.02;41.97;98645.38;5048799;28;20355;-57
2023/08/13 07:41:22;;;;;;;2.25;2.13;;;;;;;25.84;41.65;98627.31;5048591;28;20272;-57
2023/08/13 07:43:48;;;;;;;5.00;3.03;;;;;;;25.90;42.00;98612.50;5048622;28;20243;-58
2023/08/13 07:46:13;;;;;;;3.30;3.00;;;;;;;26.11;43.17;98631.75;5048417;28;20189;-58
2023/08/13 07:48:38;;;;;;;7.75;3.00;;;;;;;26.14;42.66;98607.50;5048176;28;20181;-58
2023/08/13 07:51:04;;;;;;;3.30;2.70;;;;;;;26.46;42.30;98651.91;5046783;28;20184;-58
2023/08/13 07:53:31;;;;;;;3.42;3.13;;;;;;;26.33;41.67;98619.19;5030703;28;20182;-58
2023/08/13 07:55:57;;;;;;;10.00;3.40;;;;;;;26.52;42.49;98637.81;5030626;28;20166;-58
2023/08/13 07:58:22;;;;;;;3.42;2.95;;;;;;;26.60;42.27;98628.91;5030925;28;20182;-58
2023/08/13 08:00:48;;;;;;;3.35;2.92;;;;;;;26.58;42.66;98618.47;5030916;28;20546;-58
2023/08/13 08:03:13;;;;;;;5.75;3.15;;;;;;;26.60;43.13;98610.31;5033878;28;20644;-58
2023/08/13 08:05:39;;;;;;;3.35;3.05;;;;;;;26.61;42.61;98628.72;5034929;28;20178;-58
2023/08/13 08:08:05;;;;;;;4.50;2.85;;;;;;;26.31;42.77;98611.41;5034903;28;20226;-58
2023/08/13 08:10:31;;;;;;;5.97;3.22;;;;;;;26.55;41.73;98637.47;5034420;28;20763;-58
2023/08/13 08:12:57;;;;;;;5.53;3.00;;;;;;;26.74;41.32;98644.66;5032032;28;20182;-58
2023/08/13 08:15:22;;;;;;;3.67;3.25;;;;;;;26.81;40.87;98628.72;5032555;28;20193;-58
2023/08/13 08:17:50;;;;;;;3.55;2.90;;;;;;;26.82;40.62;98631.19;5032191;28;20201;-58
2023/08/13 08:20:16;;;;;;;3.67;3.10;;;;;;;26.61;40.82;98602.16;5032038;28;20182;-58
2023/08/13 08:22:42;;;;;;;4.13;3.13;;;;;;;26.79;40.36;98628.94;5032193;28;20243;-58
2023/08/13 08:25:09;;;;;;;4.60;3.30;;;;;;;26.71;41.01;98634.44;5032162;28;20209;-58
2023/08/13 08:27:35;;;;;;;2.80;2.60;;;;;;;26.75;39.87;98625.06;5032018;28;20620;-58
2023/08/13 08:30:01;;;;;;;3.10;2.80;;;;;;;26.61;39.94;98612.78;5031849;28;20297;-58
2023/08/13 08:32:26;;;;;;;3.33;3.03;;;;;;;26.52;39.97;98613.94;5031760;28;20608;-58
2023/08/13 08:34:51;;;;;;;3.72;3.35;;;;;;;26.65;40.72;98623.81;5031845;28;20261;-58
2023/08/13 08:37:17;;;;;;;3.92;2.92;;;;;;;26.53;40.77;98604.94;5031674;28;20726;-58
2023/08/13 08:39:42;;;;;;;3.30;3.05;;;;;;;26.31;41.07;98590.19;5031704;28;20198;-58
2023/08/13 08:42:11;;;;;;;6.22;3.30;;;;;;;26.18;40.18;98599.97;5031767;28;20174;-58
2023/08/13 08:44:41;;;;;;;3.88;2.90;;;;;;;26.43;40.56;98625.78;5033327;28;20189;-58
2023/08/13 08:47:07;;;;;;;6.97;3.60;;;;;;;26.41;40.37;98617.16;5034169;28;20178;-58
2023/08/13 08:49:34;;;;;;;4.47;3.25;;;;;;;26.44;40.15;98613.31;5033707;28;20692;-58
2023/08/13 08:51:59;;;;;;;4.28;3.17;;;;;;;26.47;40.97;98613.72;5033982;28;20223;-58
2023/08/13 08:54:25;;;;;;;3.30;2.95;;;;;;;26.53;40.82;98615.56;5033741;28;20174;-58
2023/08/13 08:56:50;;;;;;;6.63;4.03;;;;;;;26.57;41.07;98611.53;5033964;28;20647;-58
2023/08/13 08:59:16;;;;;;;2.92;2.50;;;;;;;26.43;39.09;98599.22;5033852;28;20184;-58
2023/08/13 09:01:41;;;;;;;19.55;3.78;;;;;;;26.48;39.60;98612.69;5033603;28;20655;-58
2023/08/13 09:04:07;;;;;;;3.60;3.08;;;;;;;26.52;39.97;98613.94;5033877;28;20169;-58
2023/08/13 09:06:57;;;;;;;5.15;4.22;;;;;;;26.55;42.13;98624.19;5033716;28;20172;-58
2023/08/13 09:09:24;;;;;;;3.33;3.08;;;;;;;26.36;44.36;98608.19;5033882;28;20288;-58
2023/08/13 09:11:51;;;;;;;3.22;3.03;;;;;;;26.14;44.40;98591.59;5033750;28;20178;-58
2023/08/13 09:14:17;;;;;;;4.60;3.63;;;;;;;26.10;47.39;98593.00;5033059;28;20178;-58
2023/08/13 09:16:49;;;;;;;11.23;3.80;;;;;;;26.11;52.43;98604.41;5033825;28;20261;-58
2023/08/13 09:19:15;;;;;;;9.23;3.75;;;;;;;25.98;48.16;98588.44;5033713;28;20269;-58
2023/08/13 09:21:49;;;;;;;5.38;3.63;;;;;;;25.91;49.08;98585.78;5033706;28;20256;-58
2023/08/13 09:24:14;;;;;;;4.93;4.43;;;;;;;25.88;47.63;98574.69;5033693;28;20186;-58
2023/08/13 09:26:40;;;;;;;5.10;4.50;;;;;;;25.92;48.43;98589.22;5033480;28;20165;-58
2023/08/13 09:29:09;;;;;;;4.00;3.03;;;;;;;26.08;47.76;98610.94;5033457;28;20212;-58
2023/08/13 09:31:36;;;;;;;9.13;4.10;;;;;;;25.91;48.76;98582.28;5033452;28;20174;-58
2023/08/13 09:34:02;;;;;;;6.85;3.65;;;;;;;26.08;47.50;98592.38;5033467;28;20632;-57
2023/08/13 09:36:29;;;;;;;3.47;3.17;;;;;;;26.18;47.37;98600.75;5033332;28;20182;-58
2023/08/13 09:38:54;;;;;;;3.75;3.05;;;;;;;26.13;48.47;98602.38;5033464;28;20240;-58
2023/08/13 09:41:20;;;;;;;7.18;3.45;;;;;;;25.95;48.78;98567.63;5033310;28;20178;-57
2023/08/13 09:43:49;;;;;;;7.30;3.45;;;;;;;26.14;50.16;98578.31;5033154;28;20194;-58
2023/08/13 09:46:21;;;;;;;3.35;3.05;;;;;;;26.35;49.33;98583.47;5033213;28;20174;-58
2023/08/13 09:48:49;;;;;;;3.53;2.97;;;;;;;26.67;46.92;98595.22;5033122;28;20202;-57
2023/08/13 09:51:19;;;;;;;3.60;3.10;;;;;;;26.90;42.30;98583.19;5033058;28;20189;-58
2023/08/13 09:53:52;;;;;;;4.30;2.90;;;;;;;27.11;42.90;98598.13;5033329;28;20181;-58
2023/08/13 09:56:20;;;;;;;4.80;3.10;;;;;;;27.37;41.45;98593.63;5033014;28;20170;-57
2023/08/13 09:58:46;;;;;;;2.70;2.50;;;;;;;27.51;39.65;98579.28;5032984;28;20567;-57
2023/08/13 10:01:13;;;;;;;2.60;2.40;;;;;;;27.73;39.91;98599.28;5032921;28;20177;-58
2023/08/13 10:03:39;;;;;;;3.15;2.67;;;;;;;27.87;39.80;98584.13;5032892;28;20645;-58
2023/08/13 10:06:05;;;;;;;7.38;4.47;;;;;;;27.92;40.22;98571.03;5032769;28;20263;-58
2023/08/13 10:08:32;;;;;;;3.85;3.30;;;;;;;27.98;39.77;98568.31;5032832;28;20194;-57
2023/08/13 10:10:58;;;;;;;5.18;3.33;;;;;;;27.97;39.40;98553.38;5032519;28;20239;-57
2023/08/13 10:13:24;;;;;;;4.28;3.00;;;;;;;28.08;38.91;98571.34;5032647;28;20639;-57
2023/08/13 10:15:50;;;;;;;5.53;4.32;;;;;;;28.24;39.70;98588.69;5032557;28;20170;-58
2023/08/13 10:18:16;;;;;;;26.73;11.00;;;;;;;28.23;37.33;98557.78;5032546;28;20265;-57
2023/08/13 10:20:46;;;;;;;3.78;3.15;;;;;;;28.59;36.78;98585.44;5032526;28;20228;-58
2023/08/13 10:23:11;;;;;;;4.00;3.10;;;;;;;28.65;36.61;98567.78;5032459;28;20252;-58
2023/08/13 10:25:38;;;;;;;4.72;3.58;;;;;;;28.83;37.06;98576.66;5031466;28;20640;-58
2023/08/13 10:28:51;;;;;;;4.57;3.20;;;;;;;28.80;36.34;98577.09;5032363;28;20625;-58
2023/08/13 10:31:23;;;;;;;3.60;2.80;;;;;;;28.74;36.07;98577.16;4990539;28;20186;-58
2023/08/13 10:34:06;;;;;;;7.72;3.05;;;;;;;28.70;36.25;98555.47;4990529;28;20179;-58
2023/08/13 10:36:53;;;;;;;6.07;3.28;;;;;;;29.12;35.42;98568.06;4990550;28;20281;-58
2023/08/13 10:39:40;;;;;;;4.57;3.00;;;;;;;29.27;35.58;98552.53;4990519;28;20190;-58
2023/08/13 10:42:37;;;;;;;4.85;3.75;;;;;;;29.48;35.56;98560.13;4990490;28;20281;-58
2023/08/13 10:45:12;;;;;;;5.10;3.50;;;;;;;29.43;34.85;98519.97;4913410;29;20198;-58
2023/08/13 10:48:06;;;;;;;5.63;3.08;;;;;;;29.72;34.76;98529.91;4897530;29;20252;-58
2023/08/13 10:50:39;;;;;;;5.55;3.03;;;;;;;30.16;34.16;98556.31;4913417;29;20803;-58
2023/08/13 10:53:09;;;;;;;4.38;3.20;;;;;;;30.25;33.69;98528.22;4913331;29;20571;-58
2023/08/13 10:55:39;;;;;;;5.40;3.25;;;;;;;30.61;33.78;98544.13;4913311;29;20229;-58
2023/08/13 10:58:06;;;;;;;6.70;2.92;;;;;;;30.46;32.79;98518.88;4913299;29;20264;-58
2023/08/13 11:00:42;;;;;;;3.80;3.35;;;;;;;30.81;33.04;98546.53;4913235;29;20645;-58
2023/08/13 11:03:22;;;;;;;6.80;2.92;;;;;;;30.92;32.78;98521.69;4970622;28;20187;-58
2023/08/13 11:05:48;;;;;;;3.22;2.60;;;;;;;30.91;31.80;98515.53;4970544;28;20253;-58
2023/08/13 11:08:20;;;;;;;3.60;2.58;;;;;;;31.17;31.34;98544.47;4970079;28;20203;-58
2023/08/13 11:10:48;;;;;;;3.33;2.65;;;;;;;31.05;31.50;98516.91;4970346;28;20219;-58
2023/08/13 11:13:15;;;;;;;3.20;2.90;;;;;;;31.27;31.61;98528.69;4970448;28;20214;-58
2023/08/13 11:15:48;;;;;;;4.88;3.10;;;;;;;31.40;31.79;98525.78;4970718;28;20179;-58
2023/08/13 11:18:13;;;;;;;3.42;2.70;;;;;;;30.97;31.05;98519.13;4970607;28;20180;-58
2023/08/13 11:20:39;;;;;;;3.60;3.15;;;;;;;31.08;31.73;98505.75;5001485;28;20193;-58
2023/08/13 11:23:04;;;;;;;3.00;2.70;;;;;;;31.06;31.61;98507.84;5031725;28;20176;-58
2023/08/13 11:25:30;;;;;;;2.88;2.67;;;;;;;31.40;31.63;98516.91;5031493;28;20174;-58
2023/08/13 11:27:55;;;;;;;3.35;3.05;;;;;;;31.61;30.67;98490.38;5031226;28;20201;-58
2023/08/13 11:30:21;;;;;;;9.27;3.42;;;;;;;31.92;30.75;98519.41;5031105;28;20695;-58
2023/08/13 11:32:46;;;;;;;4.35;3.47;;;;;;;32.01;30.00;98493.84;5031482;28;20177;-59